Terminal Aerodrome Forecast
Issued by NWS

Home | Current Version | Previous Version | Graphics & Text | Print | Product List | Glossary On
Versions: 1 2 3 4 5 6 7 8 9 10 11 12 13 14 15 16 17 18 19 20
000
FTUS43 KGRB 230520
TAFAUW
TAF
KAUW 230520Z 2306/2406 05006KT P6SM VCSH BKN010 OVC025
     FM231000 07006KT P6SM OVC015
     FM231500 07008KT P6SM OVC025
     FM231800 08008KT P6SM OVC035
     FM232000 06009KT P6SM SCT040 BKN080
     FM232300 10006KT P6SM SCT030 BKN050=

USA.gov is the U.S. government's official web portal to all federal, state and local government web resources and services.